Time;durP1;ratioP1;P1;durP2;ratioP2;P2;SDS_P1;SDS_P2;PMS_P1;PMS_P2;Temp;Humidity;BMP_temperature;BMP_pressure;BME280_temperature;BME280_humidity;BME280_pressure;Samples;Min_cycle;Max_cycle;Signal;HPM_P1;HPM_P2
2022/08/03 00:01:32;;;;;;;0.60;0.50;;;18.10;93.40;;;;;;5094047;28;20453;-68
2022/08/03 00:03:58;;;;;;;0.60;0.60;;;18.10;93.60;;;;;;5093681;28;20495;-67
2022/08/03 00:06:24;;;;;;;0.63;0.63;;;18.10;93.70;;;;;;5093845;28;20402;-67
2022/08/03 00:08:49;;;;;;;0.40;0.40;;;18.00;93.80;;;;;;5093474;28;20188;-68
2022/08/03 00:11:15;;;;;;;1.27;0.87;;;18.00;94.10;;;;;;5093679;28;20175;-68
2022/08/03 00:13:41;;;;;;;0.50;0.40;;;17.90;94.60;;;;;;5075375;28;20242;-69
2022/08/03 00:16:07;;;;;;;0.40;0.30;;;17.90;94.60;;;;;;5093630;28;20403;-69
2022/08/03 00:18:33;;;;;;;0.60;0.50;;;18.00;94.80;;;;;;5075348;28;20173;-68
2022/08/03 00:20:58;;;;;;;0.40;0.40;;;17.90;95.00;;;;;;5093862;28;20801;-67
2022/08/03 00:23:24;;;;;;;0.50;0.50;;;17.90;95.40;;;;;;5093732;28;20213;-69
2022/08/03 00:25:49;;;;;;;0.70;0.70;;;17.80;95.60;;;;;;5094035;28;20234;-69
2022/08/03 00:28:15;;;;;;;0.40;0.40;;;17.70;95.80;;;;;;5093537;28;20205;-68
2022/08/03 00:30:41;;;;;;;0.40;0.40;;;17.70;96.00;;;;;;5075487;28;20165;-69
2022/08/03 00:33:09;;;;;;;0.60;0.60;;;17.70;96.10;;;;;;5093576;28;20200;-70
2022/08/03 00:35:35;;;;;;;0.40;0.40;;;17.80;96.30;;;;;;5093360;28;20180;-68
2022/08/03 00:38:00;;;;;;;0.40;0.40;;;17.80;96.10;;;;;;5093420;28;20399;-68
2022/08/03 00:40:26;;;;;;;1.43;0.73;;;17.90;96.00;;;;;;5093603;28;20403;-68
2022/08/03 00:42:57;;;;;;;0.50;0.50;;;17.80;96.30;;;;;;5093424;28;20176;-66
2022/08/03 00:45:25;;;;;;;0.60;0.60;;;17.80;96.80;;;;;;5093269;28;20435;-67
2022/08/03 00:47:51;;;;;;;0.77;0.60;;;17.80;96.70;;;;;;5093178;28;20891;-67
2022/08/03 00:50:18;;;;;;;1.27;0.90;;;17.90;96.80;;;;;;5093465;28;20391;-67
2022/08/03 00:52:44;;;;;;;0.37;0.37;;;17.80;96.90;;;;;;5093196;28;20401;-69
2022/08/03 00:55:10;;;;;;;0.70;0.70;;;17.80;97.10;;;;;;5093194;28;20426;-67
2022/08/03 00:57:36;;;;;;;0.30;0.30;;;17.80;97.20;;;;;;5093239;28;20725;-67
2022/08/03 01:00:07;;;;;;;0.30;0.30;;;17.80;97.30;;;;;;5093422;28;20444;-70
2022/08/03 01:02:33;;;;;;;0.60;0.60;;;17.80;97.60;;;;;;5093190;28;20427;-69
2022/08/03 01:04:58;;;;;;;0.93;0.93;;;17.80;97.70;;;;;;5075107;28;20518;-68
2022/08/03 01:07:57;;;;;;;0.83;0.60;;;17.70;97.70;;;;;;5093095;28;20465;-66
2022/08/03 01:11:08;;;;;;;0.50;0.50;;;17.70;97.90;;;;;;5067605;28;20192;-68
2022/08/03 01:13:46;;;;;;;0.60;0.60;;;17.60;98.20;;;;;;5092483;28;20745;-67
2022/08/03 01:16:43;;;;;;;0.40;0.40;;;17.60;98.40;;;;;;5075192;28;20464;-66
2022/08/03 01:19:35;;;;;;;0.60;0.60;;;17.60;98.30;;;;;;5093063;28;20394;-67
2022/08/03 01:22:25;;;;;;;0.60;0.60;;;17.60;98.30;;;;;;5093200;28;20387;-68
2022/08/03 01:25:09;;;;;;;1.30;0.93;;;17.70;98.10;;;;;;5093129;28;20419;-68
2022/08/03 01:27:58;;;;;;;0.53;0.43;;;17.70;98.10;;;;;;5096094;28;20391;-68
2022/08/03 01:30:33;;;;;;;0.67;0.67;;;17.70;98.50;;;;;;5096812;28;20414;-69
2022/08/03 01:33:14;;;;;;;0.40;0.40;;;17.60;98.40;;;;;;5096768;28;20394;-67
2022/08/03 01:35:59;;;;;;;1.33;0.87;;;17.70;98.30;;;;;;5096501;28;20418;-69
2022/08/03 01:38:37;;;;;;;0.40;0.40;;;17.70;98.40;;;;;;5096370;28;20493;-69
2022/08/03 01:41:10;;;;;;;0.53;0.53;;;17.70;98.30;;;;;;5096701;28;20398;-68
2022/08/03 01:43:41;;;;;;;0.50;0.50;;;17.60;98.50;;;;;;5078207;28;20911;-67
2022/08/03 01:46:08;;;;;;;0.83;0.50;;;17.50;98.60;;;;;;5096330;28;20375;-67
2022/08/03 01:48:38;;;;;;;0.30;0.30;;;17.50;98.70;;;;;;5096001;28;20453;-67
2022/08/03 01:51:06;;;;;;;0.53;0.53;;;17.50;98.70;;;;;;5096345;28;20405;-69
2022/08/03 01:53:33;;;;;;;0.90;0.90;;;17.50;98.80;;;;;;5096078;28;20407;-68
2022/08/03 01:56:01;;;;;;;0.40;0.40;;;17.50;98.50;;;;;;5096110;28;20439;-67
2022/08/03 01:58:28;;;;;;;0.60;0.60;;;17.50;98.40;;;;;;5095968;28;20503;-66
2022/08/03 02:00:59;;;;;;;0.40;0.40;;;17.50;98.50;;;;;;5096229;28;20407;-69
2022/08/03 02:03:27;;;;;;;0.60;0.60;;;17.40;98.60;;;;;;5096039;28;20953;-69
2022/08/03 02:05:53;;;;;;;0.40;0.40;;;17.50;98.50;;;;;;5096137;28;20410;-69
2022/08/03 02:08:24;;;;;;;0.50;0.50;;;17.50;98.40;;;;;;5095877;28;20528;-69
2022/08/03 02:10:51;;;;;;;0.50;0.50;;;17.50;98.40;;;;;;5095893;28;20399;-68
2022/08/03 02:13:19;;;;;;;0.43;0.43;;;17.50;98.60;;;;;;5096004;28;20499;-69
2022/08/03 02:15:46;;;;;;;1.20;0.53;;;17.40;98.40;;;;;;5095658;28;20427;-69
2022/08/03 02:18:12;;;;;;;0.43;0.43;;;17.40;98.50;;;;;;5095627;28;20434;-68
2022/08/03 02:20:41;;;;;;;0.57;0.57;;;17.40;98.40;;;;;;5095613;28;20446;-67
2022/08/03 02:23:08;;;;;;;0.90;0.83;;;17.40;98.40;;;;;;5095632;28;20493;-68
2022/08/03 02:25:44;;;;;;;0.87;0.70;;;17.50;98.30;;;;;;5077287;28;20844;-68
2022/08/03 02:28:17;;;;;;;1.37;1.37;;;17.50;98.00;;;;;;5095400;28;20529;-69
2022/08/03 02:30:45;;;;;;;0.60;0.60;;;17.50;98.10;;;;;;5095614;28;20735;-69
2022/08/03 02:33:24;;;;;;;0.40;0.40;;;17.40;98.00;;;;;;5095579;28;20395;-67
2022/08/03 02:35:51;;;;;;;0.80;0.60;;;17.40;98.30;;;;;;5095272;28;20462;-69
2022/08/03 02:38:20;;;;;;;0.50;0.50;;;17.30;98.40;;;;;;5094066;28;20395;-68
2022/08/03 02:40:48;;;;;;;0.50;0.50;;;17.30;98.40;;;;;;5095464;28;20399;-68
2022/08/03 02:43:19;;;;;;;0.30;0.30;;;17.20;98.40;;;;;;5095313;28;20861;-68
2022/08/03 02:45:48;;;;;;;0.47;0.47;;;17.10;98.60;;;;;;5095525;28;20433;-69
2022/08/03 02:48:21;;;;;;;1.17;0.50;;;17.20;98.40;;;;;;5094983;28;20976;-69
2022/08/03 02:50:50;;;;;;;0.40;0.40;;;17.20;98.40;;;;;;5095283;28;20386;-67
2022/08/03 02:53:16;;;;;;;0.50;0.50;;;17.20;98.40;;;;;;5095176;28;20395;-68
2022/08/03 02:55:43;;;;;;;0.40;0.40;;;17.10;98.50;;;;;;5095025;28;20417;-69
2022/08/03 02:58:12;;;;;;;0.40;0.40;;;17.10;98.80;;;;;;5094715;28;20391;-67
2022/08/03 03:00:38;;;;;;;2.07;0.90;;;17.10;98.60;;;;;;5095063;28;20404;-66
2022/08/03 03:03:05;;;;;;;0.60;0.60;;;17.20;98.30;;;;;;5094700;28;20434;-67
2022/08/03 03:05:31;;;;;;;1.13;1.03;;;17.30;98.20;;;;;;5094743;28;20430;-68
2022/08/03 03:07:57;;;;;;;0.40;0.40;;;17.30;98.20;;;;;;5094591;28;20864;-68
2022/08/03 03:10:24;;;;;;;0.70;0.70;;;17.30;98.30;;;;;;5094856;28;20494;-68
2022/08/03 03:12:54;;;;;;;0.90;0.90;;;17.30;98.40;;;;;;5094775;28;20418;-69
2022/08/03 03:15:21;;;;;;;0.43;0.43;;;17.30;98.40;;;;;;5094792;28;20430;-67
2022/08/03 03:17:49;;;;;;;1.90;0.50;;;17.20;98.20;;;;;;5094568;28;20425;-69
2022/08/03 03:20:17;;;;;;;0.93;0.60;;;17.30;98.20;;;;;;5094630;28;20399;-68
2022/08/03 03:22:43;;;;;;;0.97;0.70;;;17.30;98.50;;;;;;5094603;28;20399;-68
2022/08/03 03:25:10;;;;;;;0.50;0.50;;;17.30;98.60;;;;;;5094487;28;20513;-69
2022/08/03 03:27:36;;;;;;;0.63;0.63;;;17.30;98.70;;;;;;5094440;28;20396;-68
2022/08/03 03:30:03;;;;;;;0.70;0.50;;;17.20;98.80;;;;;;5094364;28;20457;-68
2022/08/03 03:32:29;;;;;;;0.37;0.37;;;17.20;98.90;;;;;;5094420;28;20801;-69
2022/08/03 03:34:57;;;;;;;0.40;0.40;;;17.20;99.00;;;;;;5094336;28;20419;-67
2022/08/03 03:37:24;;;;;;;0.40;0.40;;;17.10;99.10;;;;;;5094178;28;20407;-69
2022/08/03 03:39:52;;;;;;;0.40;0.40;;;17.20;99.10;;;;;;5094000;28;20486;-70
2022/08/03 03:42:18;;;;;;;0.70;0.70;;;17.20;99.00;;;;;;5094159;28;20402;-68
2022/08/03 03:44:44;;;;;;;0.50;0.50;;;17.20;99.10;;;;;;5094107;28;20514;-67
2022/08/03 03:47:10;;;;;;;1.07;0.60;;;17.20;99.20;;;;;;5093971;28;20169;-68
2022/08/03 03:49:36;;;;;;;1.03;0.53;;;17.10;99.30;;;;;;5093635;28;20196;-67
2022/08/03 03:52:01;;;;;;;0.30;0.30;;;17.10;99.50;;;;;;5094110;28;20179;-68
2022/08/03 03:54:42;;;;;;;1.10;1.10;;;17.10;99.50;;;;;;5093865;28;20926;-67
2022/08/03 03:57:09;;;;;;;0.40;0.40;;;17.10;99.50;;;;;;5094300;28;20505;-69
2022/08/03 03:59:38;;;;;;;0.60;0.60;;;17.00;99.70;;;;;;5093830;28;20406;-67
2022/08/03 04:02:05;;;;;;;0.70;0.60;;;17.00;99.80;;;;;;5093753;28;20807;-69
2022/08/03 04:12:50;;;;;;;2.30;1.03;;;17.10;99.70;;;;;;5093935;28;20440;-67
2022/08/03 04:15:20;;;;;;;0.70;0.70;;;17.20;99.60;;;;;;5093652;28;20427;-66
2022/08/03 04:17:47;;;;;;;1.23;1.13;;;17.20;99.80;;;;;;5093476;28;20397;-68
2022/08/03 04:20:14;;;;;;;0.43;0.40;;;17.10;99.90;;;;;;5093656;28;20447;-68
2022/08/03 04:22:40;;;;;;;0.43;0.43;;;17.10;99.90;;;;;;5093845;28;20403;-67
2022/08/03 04:25:09;;;;;;;0.43;0.43;;;17.10;99.90;;;;;;5075407;28;20461;-68
2022/08/03 04:27:38;;;;;;;0.50;0.50;;;17.20;99.90;;;;;;5093370;28;20403;-68
2022/08/03 04:30:06;;;;;;;0.50;0.50;;;17.20;99.90;;;;;;5093678;28;20530;-69
2022/08/03 04:32:34;;;;;;;0.40;0.40;;;17.20;99.90;;;;;;5093588;28;20391;-69
2022/08/03 04:35:00;;;;;;;0.50;0.50;;;17.30;99.90;;;;;;5093276;28;20415;-69
2022/08/03 04:37:40;;;;;;;1.07;0.90;;;17.30;99.80;;;;;;5093432;28;20413;-67
2022/08/03 04:40:09;;;;;;;1.00;1.00;;;17.30;99.90;;;;;;5093688;28;20180;-67
2022/08/03 04:42:36;;;;;;;0.60;0.60;;;17.20;99.90;;;;;;5093442;28;20401;-67
2022/08/03 04:45:03;;;;;;;1.20;0.77;;;17.20;99.90;;;;;;5093352;28;20419;-66
2022/08/03 04:47:33;;;;;;;0.57;0.57;;;17.30;99.90;;;;;;5093451;28;20464;-69
2022/08/03 04:50:02;;;;;;;0.87;0.80;;;17.40;99.80;;;;;;5093411;28;20507;-68
2022/08/03 04:52:29;;;;;;;0.40;0.40;;;17.50;99.70;;;;;;5093964;28;20410;-68
2022/08/03 04:54:55;;;;;;;0.63;0.63;;;17.50;99.60;;;;;;5093205;28;20471;-69
2022/08/03 04:57:21;;;;;;;0.50;0.50;;;17.50;99.70;;;;;;5093334;28;20399;-68
2022/08/03 04:59:48;;;;;;;0.83;0.63;;;17.50;99.90;;;;;;5093139;28;20818;-67
2022/08/03 05:02:14;;;;;;;0.40;0.40;;;17.60;99.90;;;;;;5095960;28;20641;-69
2022/08/03 05:04:45;;;;;;;0.50;0.50;;;17.80;99.90;;;;;;5097235;28;20430;-69
2022/08/03 05:07:11;;;;;;;0.57;0.57;;;18.00;99.60;;;;;;5097544;28;20407;-68
2022/08/03 05:09:37;;;;;;;0.50;0.50;;;18.30;99.40;;;;;;5096789;28;20447;-68
2022/08/03 05:12:04;;;;;;;0.60;0.60;;;18.60;99.20;;;;;;5097345;28;20406;-67
2022/08/03 05:14:29;;;;;;;0.40;0.40;;;18.90;98.80;;;;;;5096943;28;20423;-67
2022/08/03 05:16:55;;;;;;;0.40;0.40;;;19.20;98.50;;;;;;5096970;28;20433;-67
2022/08/03 05:19:21;;;;;;;0.70;0.70;;;19.40;97.50;;;;;;5096637;28;20193;-68
2022/08/03 05:21:46;;;;;;;0.60;0.60;;;19.60;96.90;;;;;;5096837;28;20403;-69
2022/08/03 05:24:12;;;;;;;0.70;0.70;;;19.80;96.50;;;;;;5096956;28;20241;-67
2022/08/03 05:26:38;;;;;;;0.60;0.60;;;20.00;96.50;;;;;;5096726;28;20196;-70
2022/08/03 05:29:03;;;;;;;0.40;0.40;;;20.40;96.00;;;;;;5096591;28;20199;-67
2022/08/03 05:31:29;;;;;;;0.60;0.60;;;21.00;94.80;;;;;;5096794;28;20163;-70
2022/08/03 05:33:56;;;;;;;0.30;0.30;;;21.80;93.70;;;;;;5096694;28;20192;-69
2022/08/03 05:36:22;;;;;;;1.37;0.63;;;22.60;92.00;;;;;;5096774;28;20198;-69
2022/08/03 05:38:48;;;;;;;0.57;0.57;;;23.50;91.30;;;;;;5096352;28;20418;-69
2022/08/03 05:41:13;;;;;;;0.43;0.43;;;24.10;90.10;;;;;;5096524;28;20172;-67
2022/08/03 05:43:39;;;;;;;0.80;0.80;;;24.30;88.10;;;;;;5096464;28;20161;-69
2022/08/03 05:46:06;;;;;;;0.70;0.70;;;24.10;87.90;;;;;;5096366;28;20259;-68
2022/08/03 05:48:31;;;;;;;0.50;0.50;;;23.80;87.50;;;;;;5096091;28;20189;-67
2022/08/03 05:50:57;;;;;;;1.20;0.57;;;23.80;88.30;;;;;;5096242;28;20374;-69
2022/08/03 05:53:22;;;;;;;0.63;0.53;;;23.60;88.60;;;;;;5096465;28;20177;-69
2022/08/03 05:55:48;;;;;;;0.50;0.47;;;23.50;89.50;;;;;;5096100;28;20184;-67
2022/08/03 05:58:14;;;;;;;0.67;0.57;;;23.30;90.10;;;;;;5095992;28;20172;-69
2022/08/03 06:00:39;;;;;;;0.50;0.50;;;23.20;90.30;;;;;;5096309;28;20190;-67
2022/08/03 06:03:05;;;;;;;0.73;0.50;;;23.30;90.50;;;;;;5095932;28;20192;-68
2022/08/03 06:05:35;;;;;;;0.40;0.40;;;23.30;90.60;;;;;;5095958;28;20192;-68
2022/08/03 06:08:01;;;;;;;0.60;0.60;;;23.30;90.20;;;;;;5095882;28;20161;-69
2022/08/03 06:10:27;;;;;;;0.40;0.40;;;23.50;90.00;;;;;;5095805;28;20410;-69
2022/08/03 06:12:52;;;;;;;1.03;0.60;;;23.70;90.00;;;;;;5095793;28;20452;-69
2022/08/03 06:15:18;;;;;;;0.50;0.50;;;24.10;90.20;;;;;;5095864;28;20189;-70
2022/08/03 06:17:48;;;;;;;0.90;0.60;;;24.60;87.70;;;;;;5095477;28;20168;-68
2022/08/03 06:20:18;;;;;;;1.07;0.70;;;24.90;87.20;;;;;;5095904;28;20175;-67
2022/08/03 06:22:45;;;;;;;0.80;0.80;;;25.00;86.50;;;;;;5095703;28;20398;-67
2022/08/03 06:25:11;;;;;;;0.40;0.40;;;25.10;85.90;;;;;;5095646;28;20408;-69
2022/08/03 06:27:38;;;;;;;1.07;0.70;;;25.20;85.00;;;;;;5095499;28;20395;-68
2022/08/03 06:30:06;;;;;;;0.93;0.60;;;25.20;84.80;;;;;;5095596;28;20461;-68
2022/08/03 06:32:32;;;;;;;0.80;0.53;;;25.20;83.70;;;;;;5095663;28;20379;-69
2022/08/03 06:34:58;;;;;;;0.50;0.50;;;25.40;83.60;;;;;;5095275;28;20487;-70
2022/08/03 06:37:25;;;;;;;0.40;0.40;;;25.70;83.50;;;;;;5095400;28;20197;-69
2022/08/03 06:39:51;;;;;;;0.50;0.50;;;25.80;83.00;;;;;;5095234;28;20970;-70
2022/08/03 06:42:17;;;;;;;0.40;0.40;;;25.90;82.40;;;;;;5095380;28;20427;-67
2022/08/03 06:44:43;;;;;;;0.63;0.40;;;26.00;81.60;;;;;;5095147;28;20454;-67
2022/08/03 06:47:09;;;;;;;0.50;0.40;;;26.20;83.10;;;;;;5095144;28;20399;-67
2022/08/03 06:49:34;;;;;;;0.77;0.77;;;26.80;82.30;;;;;;5094965;28;20217;-69
2022/08/03 06:52:00;;;;;;;0.50;0.50;;;27.80;80.00;;;;;;5095105;28;20169;-67
2022/08/03 06:54:26;;;;;;;0.43;0.43;;;28.90;76.40;;;;;;5094861;28;20184;-68
2022/08/03 06:56:51;;;;;;;0.40;0.40;;;30.00;73.60;;;;;;5094944;28;20555;-68
2022/08/03 06:59:17;;;;;;;0.57;0.57;;;31.00;69.10;;;;;;5094714;28;20175;-68
2022/08/03 07:01:43;;;;;;;0.97;0.87;;;31.40;65.30;;;;;;5094722;28;20181;-67
2022/08/03 07:04:08;;;;;;;0.40;0.40;;;31.60;64.40;;;;;;5094675;28;20209;-66
2022/08/03 07:06:34;;;;;;;0.50;0.50;;;31.50;62.40;;;;;;5094764;28;20175;-66
2022/08/03 07:09:00;;;;;;;1.23;0.73;;;31.10;63.90;;;;;;5094533;28;20549;-68
2022/08/03 07:11:27;;;;;;;0.60;0.60;;;30.60;62.70;;;;;;5094803;28;20646;-66
2022/08/03 07:13:53;;;;;;;0.70;0.70;;;30.20;59.60;;;;;;5076597;28;20814;-68
2022/08/03 07:16:18;;;;;;;0.40;0.40;;;29.70;61.10;;;;;;5094789;28;20456;-68
2022/08/03 07:18:44;;;;;;;1.23;0.70;;;29.50;65.30;;;;;;5094556;28;20182;-68
2022/08/03 07:21:11;;;;;;;0.50;0.50;;;29.60;65.50;;;;;;5094537;28;20222;-67
2022/08/03 07:23:37;;;;;;;0.50;0.50;;;29.90;60.80;;;;;;5094021;28;20165;-67
2022/08/03 07:26:03;;;;;;;0.50;0.50;;;30.40;59.00;;;;;;5094373;28;20448;-68
2022/08/03 07:28:29;;;;;;;0.70;0.70;;;30.90;55.60;;;;;;5094218;28;20551;-67
2022/08/03 07:30:54;;;;;;;0.50;0.50;;;31.60;55.30;;;;;;5094563;28;20541;-68
2022/08/03 07:33:20;;;;;;;0.90;0.90;;;32.60;52.90;;;;;;5094507;28;20637;-67
2022/08/03 07:35:45;;;;;;;0.90;0.53;;;33.70;50.50;;;;;;5094124;28;20192;-68
2022/08/03 07:38:11;;;;;;;0.50;0.50;;;34.80;47.70;;;;;;5094036;28;20161;-68
2022/08/03 07:40:37;;;;;;;0.70;0.50;;;35.80;45.90;;;;;;5094140;28;20248;-68
2022/08/03 07:43:03;;;;;;;0.50;0.50;;;37.10;43.50;;;;;;5094215;28;20520;-67
2022/08/03 07:45:30;;;;;;;0.40;0.40;;;38.70;40.80;;;;;;5094049;28;20605;-69
2022/08/03 07:47:56;;;;;;;0.50;0.50;;;39.50;37.50;;;;;;5093689;28;20427;-69
2022/08/03 07:50:22;;;;;;;0.60;0.40;;;40.10;36.80;;;;;;5094073;28;20501;-67
2022/08/03 07:52:48;;;;;;;0.50;0.40;;;40.80;35.10;;;;;;5094184;28;20248;-69
2022/08/03 07:55:15;;;;;;;0.57;0.57;;;41.40;33.30;;;;;;5093941;28;20563;-69
2022/08/03 07:57:41;;;;;;;0.53;0.53;;;42.00;33.60;;;;;;5093655;28;20490;-69
2022/08/03 08:00:16;;;;;;;0.60;0.50;;;42.50;32.50;;;;;;5093865;28;20487;-69
2022/08/03 08:02:43;;;;;;;0.83;0.40;;;42.40;31.40;;;;;;5094070;28;20172;-69
2022/08/03 08:05:09;;;;;;;0.90;0.60;;;42.60;32.10;;;;;;5093695;28;20467;-69
2022/08/03 08:07:36;;;;;;;0.60;0.60;;;42.50;31.40;;;;;;5093631;28;20834;-67
2022/08/03 08:10:06;;;;;;;0.73;0.70;;;42.50;30.00;;;;;;5093845;28;20447;-68
2022/08/03 08:12:32;;;;;;;0.53;0.53;;;42.90;30.00;;;;;;5094135;28;20399;-68
2022/08/03 08:14:58;;;;;;;1.10;0.80;;;43.00;29.70;;;;;;5093552;28;20415;-67
2022/08/03 08:17:23;;;;;;;0.67;0.50;;;42.70;29.00;;;;;;5093728;28;20168;-68
2022/08/03 08:19:49;;;;;;;0.50;0.50;;;41.90;30.00;;;;;;5093545;28;20633;-67
2022/08/03 08:22:14;;;;;;;0.50;0.50;;;42.00;30.50;;;;;;5093920;28;20180;-67
2022/08/03 08:24:42;;;;;;;0.80;0.80;;;42.30;29.10;;;;;;5093535;28;20198;-69
2022/08/03 08:27:10;;;;;;;0.50;0.40;;;42.40;29.90;;;;;;5093464;28;20660;-68
2022/08/03 08:29:37;;;;;;;0.70;0.70;;;42.40;29.00;;;;;;5093290;28;20442;-69
2022/08/03 08:32:02;;;;;;;0.60;0.50;;;42.30;29.20;;;;;;5093437;28;20387;-67
2022/08/03 08:34:28;;;;;;;0.57;0.50;;;42.30;29.70;;;;;;5093527;28;20433;-69
2022/08/03 08:36:54;;;;;;;0.50;0.50;;;42.70;28.90;;;;;;5095811;28;20251;-69
2022/08/03 08:39:19;;;;;;;0.70;0.63;;;43.60;28.60;;;;;;5097437;28;20168;-69
2022/08/03 08:41:45;;;;;;;0.40;0.40;;;43.30;28.10;;;;;;5097699;28;20173;-68
2022/08/03 08:44:11;;;;;;;1.00;0.57;;;42.70;28.40;;;;;;5097596;28;20661;-68
2022/08/03 08:46:38;;;;;;;0.77;0.50;;;42.90;28.80;;;;;;5097659;28;20179;-67
2022/08/03 08:49:08;;;;;;;0.50;0.50;;;43.10;28.70;;;;;;5097330;28;20189;-69
2022/08/03 08:51:36;;;;;;;0.60;0.53;;;42.50;28.40;;;;;;5097549;28;20403;-69
2022/08/03 08:54:03;;;;;;;0.60;0.60;;;42.40;28.60;;;;;;5097485;28;20421;-69
2022/08/03 08:56:31;;;;;;;0.47;0.40;;;43.30;28.00;;;;;;5097728;28;20401;-67
2022/08/03 08:58:59;;;;;;;0.70;0.70;;;43.30;27.30;;;;;;5097102;28;20917;-69
2022/08/03 09:01:25;;;;;;;0.60;0.50;;;42.90;27.60;;;;;;5097243;28;20407;-69
2022/08/03 09:03:52;;;;;;;0.60;0.47;;;42.40;27.80;;;;;;5096965;28;20583;-68
2022/08/03 09:06:19;;;;;;;0.67;0.63;;;42.00;28.10;;;;;;5097105;28;20402;-68
2022/08/03 09:08:45;;;;;;;0.40;0.40;;;42.30;27.40;;;;;;5096784;28;20442;-69
2022/08/03 09:11:11;;;;;;;0.40;0.40;;;43.40;27.60;;;;;;5097051;28;20402;-68
2022/08/03 09:13:37;;;;;;;0.67;0.57;;;44.10;27.90;;;;;;5096963;28;20162;-69
2022/08/03 09:16:17;;;;;;;0.53;0.53;;;44.60;26.50;;;;;;5096933;28;20497;-67
2022/08/03 09:18:51;;;;;;;0.70;0.70;;;44.90;26.10;;;;;;5096826;28;20692;-67
2022/08/03 09:21:20;;;;;;;0.40;0.40;;;44.60;26.60;;;;;;5078839;28;20422;-68
2022/08/03 09:23:47;;;;;;;0.50;0.50;;;44.20;26.70;;;;;;5096688;28;20408;-69
2022/08/03 09:26:25;;;;;;;0.50;0.50;;;44.30;26.60;;;;;;5097029;28;20402;-69
2022/08/03 09:29:01;;;;;;;0.60;0.60;;;44.60;26.20;;;;;;5096454;28;20445;-69
2022/08/03 09:31:41;;;;;;;0.90;0.60;;;44.30;26.80;;;;;;5096800;28;20756;-68
2022/08/03 09:34:09;;;;;;;0.50;0.50;;;44.30;26.80;;;;;;5096659;28;20434;-68
2022/08/03 09:36:36;;;;;;;1.00;0.67;;;44.10;27.10;;;;;;5096705;28;20411;-68
2022/08/03 09:39:05;;;;;;;0.70;0.60;;;43.00;27.70;;;;;;5096397;28;20403;-68
2022/08/03 09:41:32;;;;;;;0.50;0.50;;;42.70;29.10;;;;;;5096534;28;20403;-68
2022/08/03 09:43:57;;;;;;;0.67;0.63;;;42.10;28.50;;;;;;5096498;28;20464;-68
2022/08/03 09:46:23;;;;;;;0.70;0.70;;;41.60;28.40;;;;;;5096101;28;20438;-66
2022/08/03 09:48:49;;;;;;;0.53;0.53;;;41.50;29.30;;;;;;5095891;28;20196;-69
2022/08/03 09:51:17;;;;;;;0.43;0.40;;;41.30;29.60;;;;;;5096376;28;20256;-66
2022/08/03 09:53:44;;;;;;;0.50;0.50;;;41.50;28.70;;;;;;5096209;28;20167;-69
2022/08/03 09:56:10;;;;;;;0.50;0.50;;;41.30;29.10;;;;;;5096140;28;20399;-68
2022/08/03 09:58:45;;;;;;;0.60;0.50;;;41.00;29.20;;;;;;5096007;28;20930;-68
2022/08/03 10:01:11;;;;;;;0.97;0.53;;;40.90;29.50;;;;;;5096139;28;20214;-68
2022/08/03 10:03:38;;;;;;;0.60;0.50;;;40.50;29.30;;;;;;5095912;28;20468;-68
2022/08/03 10:06:21;;;;;;;0.60;0.60;;;40.00;29.40;;;;;;5096186;28;20460;-68
2022/08/03 10:09:03;;;;;;;0.50;0.50;;;39.70;29.60;;;;;;5095687;28;20443;-69
2022/08/03 10:11:33;;;;;;;0.80;0.80;;;39.00;30.90;;;;;;5096067;28;20398;-68
2022/08/03 10:14:07;;;;;;;0.40;0.40;;;38.90;31.00;;;;;;5095962;28;20426;-67
2022/08/03 10:16:38;;;;;;;0.57;0.57;;;38.70;31.50;;;;;;5095978;28;20848;-70
2022/08/03 10:19:06;;;;;;;0.60;0.60;;;37.80;31.40;;;;;;5095629;28;20399;-69
2022/08/03 10:21:37;;;;;;;0.90;0.83;;;37.70;31.40;;;;;;5095805;28;20518;-68
2022/08/03 10:24:05;;;;;;;0.47;0.47;;;37.70;31.40;;;;;;5095516;28;20418;-68
2022/08/03 10:26:36;;;;;;;0.70;0.70;;;38.00;31.80;;;;;;5095557;28;20854;-67
2022/08/03 10:29:07;;;;;;;0.60;0.50;;;38.60;31.90;;;;;;5095562;28;20534;-68
2022/08/03 10:31:45;;;;;;;0.80;0.80;;;38.70;31.40;;;;;;5095726;28;20403;-67
2022/08/03 10:34:21;;;;;;;0.50;0.50;;;38.40;32.00;;;;;;5095372;28;20425;-69
2022/08/03 10:36:49;;;;;;;0.80;0.80;;;38.20;30.60;;;;;;5095460;28;20423;-68
2022/08/03 10:39:18;;;;;;;0.60;0.60;;;38.40;30.70;;;;;;5077128;28;20418;-67
2022/08/03 10:41:45;;;;;;;0.80;0.80;;;37.80;31.40;;;;;;5095354;28;20413;-68
2022/08/03 10:44:19;;;;;;;0.40;0.40;;;37.20;32.30;;;;;;5095134;28;20962;-68
2022/08/03 10:46:47;;;;;;;0.90;0.90;;;36.80;33.10;;;;;;5095141;28;20395;-68
2022/08/03 10:49:16;;;;;;;0.80;0.80;;;36.10;33.40;;;;;;5094912;28;20449;-66
2022/08/03 10:51:46;;;;;;;0.53;0.47;;;35.60;34.10;;;;;;5095095;28;20399;-66
2022/08/03 10:54:34;;;;;;;0.67;0.67;;;35.50;34.90;;;;;;5095011;28;20415;-68
2022/08/03 10:59:49;;;;;;;0.60;0.50;;;35.50;35.80;;;;;;5093940;28;20397;-66
2022/08/03 11:02:16;;;;;;;0.70;0.70;;;35.40;34.90;;;;;;5094805;28;20386;-66
2022/08/03 11:04:45;;;;;;;0.60;0.60;;;35.30;34.90;;;;;;5094863;28;20419;-69
2022/08/03 11:07:23;;;;;;;0.83;0.50;;;34.80;37.20;;;;;;5094654;28;20431;-66
2022/08/03 11:09:51;;;;;;;0.50;0.50;;;34.50;36.70;;;;;;5094496;28;20503;-68
2022/08/03 11:12:31;;;;;;;0.63;0.43;;;34.30;36.00;;;;;;5094728;28;20403;-68
2022/08/03 11:14:59;;;;;;;0.63;0.63;;;34.10;36.40;;;;;;5094473;28;20925;-67
2022/08/03 11:17:25;;;;;;;0.60;0.47;;;33.90;36.60;;;;;;5094663;28;20914;-67
2022/08/03 11:19:52;;;;;;;1.00;0.70;;;33.50;37.30;;;;;;5094542;28;20416;-66
2022/08/03 11:22:19;;;;;;;0.50;0.50;;;33.40;38.40;;;;;;5094523;28;20177;-67
2022/08/03 11:24:52;;;;;;;0.63;0.43;;;33.40;38.00;;;;;;5094375;28;20498;-68
2022/08/03 11:27:27;;;;;;;0.50;0.50;;;33.50;36.40;;;;;;5094591;28;20394;-68
2022/08/03 11:30:00;;;;;;;0.50;0.50;;;33.60;38.80;;;;;;5094242;28;20443;-67
2022/08/03 11:32:58;;;;;;;0.53;0.53;;;33.80;36.80;;;;;;5094453;28;20403;-67
2022/08/03 11:35:35;;;;;;;0.40;0.40;;;33.90;38.40;;;;;;5082114;28;20439;-68
2022/08/03 11:38:06;;;;;;;0.80;0.73;;;34.00;36.30;;;;;;5094030;28;20398;-66
2022/08/03 11:40:34;;;;;;;0.70;0.50;;;33.80;37.70;;;;;;5094347;28;20456;-67
2022/08/03 11:43:01;;;;;;;0.73;0.60;;;33.70;37.30;;;;;;5094112;28;20974;-67
2022/08/03 11:45:27;;;;;;;0.83;0.50;;;33.70;36.90;;;;;;5075836;28;20466;-68
2022/08/03 11:47:54;;;;;;;0.50;0.50;;;33.60;37.20;;;;;;5094016;28;20442;-68
2022/08/03 11:50:20;;;;;;;0.50;0.50;;;33.40;37.10;;;;;;5094033;28;20454;-66
2022/08/03 11:52:47;;;;;;;0.60;0.50;;;33.50;38.00;;;;;;5094130;28;20922;-68
2022/08/03 11:55:15;;;;;;;0.80;0.50;;;33.30;37.60;;;;;;5094052;28;20555;-68
2022/08/03 11:57:42;;;;;;;0.90;0.60;;;33.20;37.70;;;;;;5093718;28;20394;-68
2022/08/03 12:00:19;;;;;;;0.70;0.60;;;33.20;36.80;;;;;;5093912;28;20409;-68
2022/08/03 12:03:10;;;;;;;0.67;0.67;;;33.20;38.20;;;;;;5093756;28;20808;-67
2022/08/03 12:05:46;;;;;;;0.60;0.60;;;33.20;36.40;;;;;;5093963;28;20793;-67
2022/08/03 12:08:13;;;;;;;0.80;0.80;;;33.00;36.60;;;;;;5093473;28;20429;-66
2022/08/03 12:10:44;;;;;;;0.40;0.40;;;32.80;36.40;;;;;;5093412;28;20406;-67
2022/08/03 12:13:10;;;;;;;0.40;0.40;;;32.90;36.80;;;;;;5075730;28;20809;-66
2022/08/03 12:15:37;;;;;;;0.40;0.40;;;32.80;36.30;;;;;;5093565;28;20431;-66
2022/08/03 12:18:11;;;;;;;0.60;0.60;;;32.80;36.40;;;;;;5093591;28;20157;-66
2022/08/03 12:20:37;;;;;;;0.47;0.47;;;32.60;35.70;;;;;;5093771;28;20409;-68
2022/08/03 12:23:07;;;;;;;0.40;0.40;;;32.40;36.50;;;;;;5093996;28;20887;-68
2022/08/03 12:25:33;;;;;;;0.57;0.57;;;32.40;36.50;;;;;;5093533;28;20635;-66
2022/08/03 12:28:10;;;;;;;0.60;0.60;;;32.40;38.50;;;;;;5093411;28;20403;-68
2022/08/03 12:30:37;;;;;;;1.27;0.40;;;32.10;35.80;;;;;;5093693;28;20414;-68
2022/08/03 12:33:25;;;;;;;0.50;0.50;;;32.00;36.20;;;;;;5093507;28;20883;-66
2022/08/03 12:36:09;;;;;;;0.50;0.50;;;31.80;37.10;;;;;;5093383;28;20411;-67
2022/08/03 12:38:38;;;;;;;0.50;0.50;;;31.90;37.70;;;;;;5093303;28;20406;-67
2022/08/03 12:41:07;;;;;;;1.00;0.67;;;31.90;36.40;;;;;;5093492;28;20403;-67
2022/08/03 12:43:34;;;;;;;0.50;0.50;;;32.00;35.60;;;;;;5093217;28;20463;-66
2022/08/03 12:46:10;;;;;;;0.63;0.50;;;32.00;36.40;;;;;;5093365;28;20399;-65
2022/08/03 12:48:36;;;;;;;0.37;0.37;;;32.20;37.80;;;;;;5093135;28;20979;-68
2022/08/03 12:51:10;;;;;;;1.13;0.67;;;32.10;35.60;;;;;;5093536;28;20426;-67
2022/08/03 12:53:36;;;;;;;0.70;0.60;;;32.00;35.50;;;;;;5093338;28;20390;-67
2022/08/03 12:56:04;;;;;;;0.93;0.40;;;32.00;35.60;;;;;;5093295;28;20482;-68
2022/08/03 12:58:35;;;;;;;0.47;0.47;;;32.10;35.80;;;;;;5093141;28;20648;-67
2022/08/03 13:01:02;;;;;;;0.50;0.50;;;31.80;36.00;;;;;;5093474;28;20410;-68
2022/08/03 13:03:28;;;;;;;0.90;0.57;;;31.80;33.70;;;;;;5093149;28;20431;-67
2022/08/03 13:05:54;;;;;;;0.50;0.40;;;31.90;33.80;;;;;;5093105;28;20935;-67
2022/08/03 13:08:22;;;;;;;0.47;0.40;;;32.00;35.90;;;;;;5093298;28;20165;-68